sensor_id;sensor_type;location;lat;lon;timestamp;temperature;humidity
1614;DHT22;800;48.824;9.346;2022-11-20T00:00:01;12.10;63.30
1614;DHT22;800;48.824;9.346;2022-11-20T00:02:27;12.10;63.40
1614;DHT22;800;48.824;9.346;2022-11-20T00:04:52;12.10;63.60
1614;DHT22;800;48.824;9.346;2022-11-20T00:07:18;12.10;63.50
1614;DHT22;800;48.824;9.346;2022-11-20T00:09:43;12.20;63.60
1614;DHT22;800;48.824;9.346;2022-11-20T00:12:09;12.10;63.50
1614;DHT22;800;48.824;9.346;2022-11-20T00:14:34;12.10;63.40
1614;DHT22;800;48.824;9.346;2022-11-20T00:17:00;12.10;64.20
1614;DHT22;800;48.824;9.346;2022-11-20T00:19:26;12.10;63.40
1614;DHT22;800;48.824;9.346;2022-11-20T00:21:51;12.10;63.50
1614;DHT22;800;48.824;9.346;2022-11-20T00:24:19;12.10;63.60
1614;DHT22;800;48.824;9.346;2022-11-20T00:26:44;12.10;63.60
1614;DHT22;800;48.824;9.346;2022-11-20T00:29:10;12.10;63.80
1614;DHT22;800;48.824;9.346;2022-11-20T00:31:36;12.00;63.80
1614;DHT22;800;48.824;9.346;2022-11-20T00:34:01;12.10;63.80
1614;DHT22;800;48.824;9.346;2022-11-20T00:36:28;12.10;63.70
1614;DHT22;800;48.824;9.346;2022-11-20T00:38:56;12.00;63.70
1614;DHT22;800;48.824;9.346;2022-11-20T00:41:22;12.00;63.70
1614;DHT22;800;48.824;9.346;2022-11-20T00:43:48;12.00;63.90
1614;DHT22;800;48.824;9.346;2022-11-20T00:46:16;12.00;64.00
1614;DHT22;800;48.824;9.346;2022-11-20T00:48:43;12.00;64.10
1614;DHT22;800;48.824;9.346;2022-11-20T00:51:09;12.00;63.90
1614;DHT22;800;48.824;9.346;2022-11-20T00:53:36;12.00;63.90
1614;DHT22;800;48.824;9.346;2022-11-20T00:56:06;12.00;64.00
1614;DHT22;800;48.824;9.346;2022-11-20T00:58:35;12.00;64.00
1614;DHT22;800;48.824;9.346;2022-11-20T01:01:22;12.00;64.00
1614;DHT22;800;48.824;9.346;2022-11-20T01:03:55;11.90;64.00
1614;DHT22;800;48.824;9.346;2022-11-20T01:06:24;11.90;64.10
1614;DHT22;800;48.824;9.346;2022-11-20T01:08:52;12.00;64.10
1614;DHT22;800;48.824;9.346;2022-11-20T01:11:23;12.00;64.00
1614;DHT22;800;48.824;9.346;2022-11-20T01:13:50;12.00;64.10
1614;DHT22;800;48.824;9.346;2022-11-20T01:16:26;12.00;64.20
1614;DHT22;800;48.824;9.346;2022-11-20T01:18:57;12.00;64.30
1614;DHT22;800;48.824;9.346;2022-11-20T01:21:34;12.00;64.20
1614;DHT22;800;48.824;9.346;2022-11-20T01:24:00;12.10;64.10
1614;DHT22;800;48.824;9.346;2022-11-20T01:26:29;12.10;64.00
1614;DHT22;800;48.824;9.346;2022-11-20T01:28:55;12.10;63.90
1614;DHT22;800;48.824;9.346;2022-11-20T01:31:27;12.10;63.80
1614;DHT22;800;48.824;9.346;2022-11-20T01:33:58;12.10;63.90
1614;DHT22;800;48.824;9.346;2022-11-20T01:36:27;12.00;63.80
1614;DHT22;800;48.824;9.346;2022-11-20T01:38:54;11.80;64.00
1614;DHT22;800;48.824;9.346;2022-11-20T01:41:21;11.80;64.50
1614;DHT22;800;48.824;9.346;2022-11-20T01:44:06;11.90;64.50
1614;DHT22;800;48.824;9.346;2022-11-20T01:46:35;12.00;64.30
1614;DHT22;800;48.824;9.346;2022-11-20T01:49:11;12.00;64.40
1614;DHT22;800;48.824;9.346;2022-11-20T01:51:56;12.00;64.50
1614;DHT22;800;48.824;9.346;2022-11-20T01:54:30;12.00;64.30
1614;DHT22;800;48.824;9.346;2022-11-20T01:57:00;12.00;64.00
1614;DHT22;800;48.824;9.346;2022-11-20T01:59:27;12.10;63.80
1614;DHT22;800;48.824;9.346;2022-11-20T02:01:53;12.00;63.50
1614;DHT22;800;48.824;9.346;2022-11-20T02:04:20;12.00;63.50
1614;DHT22;800;48.824;9.346;2022-11-20T02:06:50;12.00;63.30
1614;DHT22;800;48.824;9.346;2022-11-20T02:09:17;12.00;63.10
1614;DHT22;800;48.824;9.346;2022-11-20T02:11:43;11.90;63.00
1614;DHT22;800;48.824;9.346;2022-11-20T02:14:09;11.90;62.90
1614;DHT22;800;48.824;9.346;2022-11-20T02:16:37;11.80;62.90
1614;DHT22;800;48.824;9.346;2022-11-20T02:19:07;11.90;62.80
1614;DHT22;800;48.824;9.346;2022-11-20T02:22:10;11.90;62.70
1614;DHT22;800;48.824;9.346;2022-11-20T02:24:39;11.90;62.60
1614;DHT22;800;48.824;9.346;2022-11-20T02:27:08;11.90;62.40
1614;DHT22;800;48.824;9.346;2022-11-20T02:29:45;11.90;62.40
1614;DHT22;800;48.824;9.346;2022-11-20T02:32:21;11.90;62.40
1614;DHT22;800;48.824;9.346;2022-11-20T02:34:47;11.90;62.40
1614;DHT22;800;48.824;9.346;2022-11-20T02:37:14;11.90;62.10
1614;DHT22;800;48.824;9.346;2022-11-20T02:39:40;11.90;61.80
1614;DHT22;800;48.824;9.346;2022-11-20T02:42:06;12.00;61.60
1614;DHT22;800;48.824;9.346;2022-11-20T02:44:32;12.00;61.10
1614;DHT22;800;48.824;9.346;2022-11-20T02:46:58;12.10;60.90
1614;DHT22;800;48.824;9.346;2022-11-20T02:49:24;12.10;60.70
1614;DHT22;800;48.824;9.346;2022-11-20T02:51:50;12.10;60.80
1614;DHT22;800;48.824;9.346;2022-11-20T02:54:16;12.10;60.70
1614;DHT22;800;48.824;9.346;2022-11-20T02:56:41;12.10;60.60
1614;DHT22;800;48.824;9.346;2022-11-20T02:59:07;12.20;60.90
1614;DHT22;800;48.824;9.346;2022-11-20T03:01:33;12.20;60.90
1614;DHT22;800;48.824;9.346;2022-11-20T03:03:59;12.20;61.00
1614;DHT22;800;48.824;9.346;2022-11-20T03:06:24;12.20;61.30
1614;DHT22;800;48.824;9.346;2022-11-20T03:08:50;12.20;61.40
1614;DHT22;800;48.824;9.346;2022-11-20T03:11:15;12.10;61.30
1614;DHT22;800;48.824;9.346;2022-11-20T03:13:42;12.20;61.20
1614;DHT22;800;48.824;9.346;2022-11-20T03:16:10;12.00;60.50
1614;DHT22;800;48.824;9.346;2022-11-20T03:18:37;11.90;60.70
1614;DHT22;800;48.824;9.346;2022-11-20T03:21:03;11.80;60.00
1614;DHT22;800;48.824;9.346;2022-11-20T03:23:30;11.70;60.40
1614;DHT22;800;48.824;9.346;2022-11-20T03:26:16;11.70;60.60
1614;DHT22;800;48.824;9.346;2022-11-20T03:28:46;11.80;60.60
1614;DHT22;800;48.824;9.346;2022-11-20T03:31:14;11.90;60.40
1614;DHT22;800;48.824;9.346;2022-11-20T03:33:41;11.90;60.30
1614;DHT22;800;48.824;9.346;2022-11-20T03:36:12;11.90;60.20
1614;DHT22;800;48.824;9.346;2022-11-20T03:38:39;11.80;60.40
1614;DHT22;800;48.824;9.346;2022-11-20T03:41:11;11.70;60.60
1614;DHT22;800;48.824;9.346;2022-11-20T03:43:37;11.40;60.90
1614;DHT22;800;48.824;9.346;2022-11-20T03:46:03;11.40;62.40
1614;DHT22;800;48.824;9.346;2022-11-20T03:48:29;11.50;61.40
1614;DHT22;800;48.824;9.346;2022-11-20T03:51:13;11.60;61.00
1614;DHT22;800;48.824;9.346;2022-11-20T03:53:44;11.50;60.80
1614;DHT22;800;48.824;9.346;2022-11-20T03:56:12;11.40;60.80
1614;DHT22;800;48.824;9.346;2022-11-20T03:58:40;11.50;61.00
1614;DHT22;800;48.824;9.346;2022-11-20T04:01:15;11.50;60.90
1614;DHT22;800;48.824;9.346;2022-11-20T04:03:41;11.70;60.70
1614;DHT22;800;48.824;9.346;2022-11-20T04:06:19;11.80;60.50
1614;DHT22;800;48.824;9.346;2022-11-20T04:08:45;11.80;60.30
1614;DHT22;800;48.824;9.346;2022-11-20T04:11:13;11.90;60.40
1614;DHT22;800;48.824;9.346;2022-11-20T04:13:39;11.90;60.20
1614;DHT22;800;48.824;9.346;2022-11-20T04:16:07;11.90;60.00
1614;DHT22;800;48.824;9.346;2022-11-20T04:18:33;11.70;59.80
1614;DHT22;800;48.824;9.346;2022-11-20T04:21:00;11.80;59.80
1614;DHT22;800;48.824;9.346;2022-11-20T04:23:26;11.60;59.90
1614;DHT22;800;48.824;9.346;2022-11-20T04:25:52;11.40;60.40
1614;DHT22;800;48.824;9.346;2022-11-20T04:28:17;11.40;60.60
1614;DHT22;800;48.824;9.346;2022-11-20T04:30:43;11.50;60.40
1614;DHT22;800;48.824;9.346;2022-11-20T04:33:08;11.40;60.10
1614;DHT22;800;48.824;9.346;2022-11-20T04:35:35;11.50;60.20
1614;DHT22;800;48.824;9.346;2022-11-20T04:38:01;11.60;60.10
1614;DHT22;800;48.824;9.346;2022-11-20T04:40:28;11.60;59.70
1614;DHT22;800;48.824;9.346;2022-11-20T04:42:54;11.50;59.90
1614;DHT22;800;48.824;9.346;2022-11-20T04:45:20;11.40;60.10
1614;DHT22;800;48.824;9.346;2022-11-20T04:47:45;11.30;60.20
1614;DHT22;800;48.824;9.346;2022-11-20T04:50:11;11.30;60.20
1614;DHT22;800;48.824;9.346;2022-11-20T04:52:36;11.30;60.40
1614;DHT22;800;48.824;9.346;2022-11-20T04:55:02;11.20;60.50
1614;DHT22;800;48.824;9.346;2022-11-20T04:57:28;11.30;60.40
1614;DHT22;800;48.824;9.346;2022-11-20T04:59:53;11.40;60.60
1614;DHT22;800;48.824;9.346;2022-11-20T05:02:19;11.60;60.30
1614;DHT22;800;48.824;9.346;2022-11-20T05:04:45;11.60;60.10
1614;DHT22;800;48.824;9.346;2022-11-20T05:07:11;11.60;59.50
1614;DHT22;800;48.824;9.346;2022-11-20T05:09:36;11.60;59.50
1614;DHT22;800;48.824;9.346;2022-11-20T05:12:02;11.70;59.50
1614;DHT22;800;48.824;9.346;2022-11-20T05:14:27;11.70;59.30
1614;DHT22;800;48.824;9.346;2022-11-20T05:16:53;11.70;59.50
1614;DHT22;800;48.824;9.346;2022-11-20T05:19:19;11.80;59.40
1614;DHT22;800;48.824;9.346;2022-11-20T05:21:44;11.90;59.30
1614;DHT22;800;48.824;9.346;2022-11-20T05:24:10;11.80;59.10
1614;DHT22;800;48.824;9.346;2022-11-20T05:26:35;11.90;59.00
1614;DHT22;800;48.824;9.346;2022-11-20T05:29:01;11.90;58.80
1614;DHT22;800;48.824;9.346;2022-11-20T05:31:26;12.00;58.80
1614;DHT22;800;48.824;9.346;2022-11-20T05:33:52;12.00;59.20
1614;DHT22;800;48.824;9.346;2022-11-20T05:36:18;11.90;58.80
1614;DHT22;800;48.824;9.346;2022-11-20T05:38:44;12.00;58.80
1614;DHT22;800;48.824;9.346;2022-11-20T05:41:14;12.00;58.50
1614;DHT22;800;48.824;9.346;2022-11-20T05:43:41;12.00;58.70
1614;DHT22;800;48.824;9.346;2022-11-20T05:46:10;12.10;58.60
1614;DHT22;800;48.824;9.346;2022-11-20T05:48:36;12.10;58.40
1614;DHT22;800;48.824;9.346;2022-11-20T05:51:04;12.10;58.30
1614;DHT22;800;48.824;9.346;2022-11-20T05:53:32;12.10;58.30
1614;DHT22;800;48.824;9.346;2022-11-20T05:55:59;12.20;58.40
1614;DHT22;800;48.824;9.346;2022-11-20T05:58:25;12.10;58.40
1614;DHT22;800;48.824;9.346;2022-11-20T06:00:53;12.20;58.80
1614;DHT22;800;48.824;9.346;2022-11-20T06:03:19;12.10;58.70
1614;DHT22;800;48.824;9.346;2022-11-20T06:05:45;12.20;58.70
1614;DHT22;800;48.824;9.346;2022-11-20T06:08:10;12.10;58.70
1614;DHT22;800;48.824;9.346;2022-11-20T06:10:36;12.10;59.30
1614;DHT22;800;48.824;9.346;2022-11-20T06:13:01;11.90;58.50
1614;DHT22;800;48.824;9.346;2022-11-20T06:15:27;11.90;58.50
1614;DHT22;800;48.824;9.346;2022-11-20T06:17:53;11.90;58.70
1614;DHT22;800;48.824;9.346;2022-11-20T06:20:20;11.90;58.70
1614;DHT22;800;48.824;9.346;2022-11-20T06:22:45;12.00;58.70
1614;DHT22;800;48.824;9.346;2022-11-20T06:25:11;12.00;58.50
1614;DHT22;800;48.824;9.346;2022-11-20T06:27:36;12.00;58.80
1614;DHT22;800;48.824;9.346;2022-11-20T06:30:03;12.00;58.80
1614;DHT22;800;48.824;9.346;2022-11-20T06:32:29;12.00;58.50
1614;DHT22;800;48.824;9.346;2022-11-20T06:34:54;11.90;58.90
1614;DHT22;800;48.824;9.346;2022-11-20T06:37:20;12.00;59.80
1614;DHT22;800;48.824;9.346;2022-11-20T06:39:46;12.20;60.50
1614;DHT22;800;48.824;9.346;2022-11-20T06:42:11;12.30;59.80
1614;DHT22;800;48.824;9.346;2022-11-20T06:44:37;12.30;59.00
1614;DHT22;800;48.824;9.346;2022-11-20T06:47:02;12.40;59.10
1614;DHT22;800;48.824;9.346;2022-11-20T06:49:28;12.50;59.10
1614;DHT22;800;48.824;9.346;2022-11-20T06:51:53;12.60;58.50
1614;DHT22;800;48.824;9.346;2022-11-20T06:54:19;12.70;58.30
1614;DHT22;800;48.824;9.346;2022-11-20T06:56:48;12.80;58.10
1614;DHT22;800;48.824;9.346;2022-11-20T06:59:13;12.70;57.60
1614;DHT22;800;48.824;9.346;2022-11-20T07:01:39;12.80;57.80
1614;DHT22;800;48.824;9.346;2022-11-20T07:04:05;12.90;57.80
1614;DHT22;800;48.824;9.346;2022-11-20T07:06:30;12.90;57.60
1614;DHT22;800;48.824;9.346;2022-11-20T07:08:56;13.00;57.70
1614;DHT22;800;48.824;9.346;2022-11-20T07:11:22;13.10;57.90
1614;DHT22;800;48.824;9.346;2022-11-20T07:13:48;13.10;57.30
1614;DHT22;800;48.824;9.346;2022-11-20T07:16:14;13.10;56.90
1614;DHT22;800;48.824;9.346;2022-11-20T07:18:39;13.00;56.30
1614;DHT22;800;48.824;9.346;2022-11-20T07:21:07;12.90;56.40
1614;DHT22;800;48.824;9.346;2022-11-20T07:23:34;12.90;56.60
1614;DHT22;800;48.824;9.346;2022-11-20T07:26:07;12.90;56.70
1614;DHT22;800;48.824;9.346;2022-11-20T07:28:33;12.90;56.80
1614;DHT22;800;48.824;9.346;2022-11-20T07:30:59;13.00;56.80
1614;DHT22;800;48.824;9.346;2022-11-20T07:33:24;13.10;56.60
1614;DHT22;800;48.824;9.346;2022-11-20T07:35:50;13.00;56.30
1614;DHT22;800;48.824;9.346;2022-11-20T07:38:15;13.10;56.40
1614;DHT22;800;48.824;9.346;2022-11-20T07:40:41;13.10;56.70
1614;DHT22;800;48.824;9.346;2022-11-20T07:43:06;13.20;56.60
1614;DHT22;800;48.824;9.346;2022-11-20T07:45:32;13.20;56.50
1614;DHT22;800;48.824;9.346;2022-11-20T07:47:58;13.20;56.50
1614;DHT22;800;48.824;9.346;2022-11-20T07:50:23;13.30;56.50
1614;DHT22;800;48.824;9.346;2022-11-20T07:52:49;13.20;56.00
1614;DHT22;800;48.824;9.346;2022-11-20T07:57:58;13.00;56.30
1614;DHT22;800;48.824;9.346;2022-11-20T08:00:25;13.00;56.10
1614;DHT22;800;48.824;9.346;2022-11-20T08:02:51;13.00;56.40
1614;DHT22;800;48.824;9.346;2022-11-20T08:05:17;12.80;56.70
1614;DHT22;800;48.824;9.346;2022-11-20T08:07:43;12.90;56.80
1614;DHT22;800;48.824;9.346;2022-11-20T08:10:11;12.80;56.90
1614;DHT22;800;48.824;9.346;2022-11-20T08:12:47;12.70;57.10
1614;DHT22;800;48.824;9.346;2022-11-20T08:15:32;12.60;57.40
1614;DHT22;800;48.824;9.346;2022-11-20T08:20:31;12.50;57.50
1614;DHT22;800;48.824;9.346;2022-11-20T08:23:01;12.50;57.60
1614;DHT22;800;48.824;9.346;2022-11-20T08:25:28;12.50;57.60
1614;DHT22;800;48.824;9.346;2022-11-20T08:27:56;12.50;57.60
1614;DHT22;800;48.824;9.346;2022-11-20T08:30:21;12.20;57.90
1614;DHT22;800;48.824;9.346;2022-11-20T08:32:47;12.10;58.30
1614;DHT22;800;48.824;9.346;2022-11-20T08:35:13;12.00;58.60
1614;DHT22;800;48.824;9.346;2022-11-20T08:37:38;12.00;58.90
1614;DHT22;800;48.824;9.346;2022-11-20T08:40:10;11.90;59.10
1614;DHT22;800;48.824;9.346;2022-11-20T08:42:36;11.90;59.30
1614;DHT22;800;48.824;9.346;2022-11-20T08:45:02;12.10;59.40
1614;DHT22;800;48.824;9.346;2022-11-20T08:47:28;12.10;59.30
1614;DHT22;800;48.824;9.346;2022-11-20T08:49:53;12.10;59.30
1614;DHT22;800;48.824;9.346;2022-11-20T08:52:19;12.30;59.10
1614;DHT22;800;48.824;9.346;2022-11-20T08:54:45;12.20;59.20
1614;DHT22;800;48.824;9.346;2022-11-20T08:57:11;12.10;59.00
1614;DHT22;800;48.824;9.346;2022-11-20T08:59:36;11.90;59.30
1614;DHT22;800;48.824;9.346;2022-11-20T09:02:02;12.00;59.50
1614;DHT22;800;48.824;9.346;2022-11-20T09:04:28;11.90;59.70
1614;DHT22;800;48.824;9.346;2022-11-20T09:06:54;12.20;59.70
1614;DHT22;800;48.824;9.346;2022-11-20T09:09:19;12.30;59.60
1614;DHT22;800;48.824;9.346;2022-11-20T09:11:45;12.10;59.40
1614;DHT22;800;48.824;9.346;2022-11-20T09:14:11;11.80;59.50
1614;DHT22;800;48.824;9.346;2022-11-20T09:16:36;11.80;60.20
1614;DHT22;800;48.824;9.346;2022-11-20T09:19:02;11.80;60.50
1614;DHT22;800;48.824;9.346;2022-11-20T09:21:27;11.90;60.50
1614;DHT22;800;48.824;9.346;2022-11-20T09:23:53;11.90;60.30
1614;DHT22;800;48.824;9.346;2022-11-20T09:26:18;11.70;60.30
1614;DHT22;800;48.824;9.346;2022-11-20T09:28:44;11.50;60.70
1614;DHT22;800;48.824;9.346;2022-11-20T09:31:36;11.50;61.00
1614;DHT22;800;48.824;9.346;2022-11-20T09:34:02;11.60;61.20
1614;DHT22;800;48.824;9.346;2022-11-20T09:36:28;11.70;61.00
1614;DHT22;800;48.824;9.346;2022-11-20T09:38:53;11.60;60.80
1614;DHT22;800;48.824;9.346;2022-11-20T09:47:11;11.40;61.90
1614;DHT22;800;48.824;9.346;2022-11-20T09:49:53;11.40;62.10
1614;DHT22;800;48.824;9.346;2022-11-20T09:55:09;11.60;62.70
1614;DHT22;800;48.824;9.346;2022-11-20T09:57:38;11.80;62.10
1614;DHT22;800;48.824;9.346;2022-11-20T10:00:06;11.90;61.80
1614;DHT22;800;48.824;9.346;2022-11-20T10:03:01;11.80;61.80
1614;DHT22;800;48.824;9.346;2022-11-20T10:05:47;11.70;61.20
1614;DHT22;800;48.824;9.346;2022-11-20T10:08:41;11.50;62.30
1614;DHT22;800;48.824;9.346;2022-11-20T10:14:26;11.70;62.20
1614;DHT22;800;48.824;9.346;2022-11-20T10:29:55;11.60;64.00
1614;DHT22;800;48.824;9.346;2022-11-20T10:32:31;12.00;63.60
1614;DHT22;800;48.824;9.346;2022-11-20T10:35:20;12.10;63.30
1614;DHT22;800;48.824;9.346;2022-11-20T10:40:38;11.90;63.30
1614;DHT22;800;48.824;9.346;2022-11-20T10:43:14;11.90;63.10
1614;DHT22;800;48.824;9.346;2022-11-20T10:46:03;11.80;64.70
1614;DHT22;800;48.824;9.346;2022-11-20T10:48:31;11.60;66.40
1614;DHT22;800;48.824;9.346;2022-11-20T10:51:08;11.50;67.40
1614;DHT22;800;48.824;9.346;2022-11-20T11:01:24;11.60;67.90
1614;DHT22;800;48.824;9.346;2022-11-20T11:03:53;11.50;66.80
1614;DHT22;800;48.824;9.346;2022-11-20T11:06:37;11.10;67.90
1614;DHT22;800;48.824;9.346;2022-11-20T11:09:12;11.10;69.20
1614;DHT22;800;48.824;9.346;2022-11-20T11:11:39;11.20;69.50
1614;DHT22;800;48.824;9.346;2022-11-20T11:14:10;11.60;68.90
1614;DHT22;800;48.824;9.346;2022-11-20T11:16:52;11.90;67.60
1614;DHT22;800;48.824;9.346;2022-11-20T11:19:18;11.90;67.10
1614;DHT22;800;48.824;9.346;2022-11-20T11:21:47;11.70;66.70
1614;DHT22;800;48.824;9.346;2022-11-20T11:24:27;11.90;67.00
1614;DHT22;800;48.824;9.346;2022-11-20T11:27:01;12.00;66.80
1614;DHT22;800;48.824;9.346;2022-11-20T11:29:30;11.80;66.90
1614;DHT22;800;48.824;9.346;2022-11-20T11:32:18;11.80;67.20
1614;DHT22;800;48.824;9.346;2022-11-20T11:34:44;12.00;67.10
1614;DHT22;800;48.824;9.346;2022-11-20T11:37:17;12.10;66.70
1614;DHT22;800;48.824;9.346;2022-11-20T11:39:44;12.20;66.50
1614;DHT22;800;48.824;9.346;2022-11-20T11:42:17;12.20;66.40
1614;DHT22;800;48.824;9.346;2022-11-20T11:44:47;12.20;67.20
1614;DHT22;800;48.824;9.346;2022-11-20T11:47:43;12.30;68.30
1614;DHT22;800;48.824;9.346;2022-11-20T11:53:16;12.50;67.70
1614;DHT22;800;48.824;9.346;2022-11-20T12:04:23;12.80;64.00
1614;DHT22;800;48.824;9.346;2022-11-20T12:07:07;13.10;64.10
1614;DHT22;800;48.824;9.346;2022-11-20T12:09:39;13.30;62.30
1614;DHT22;800;48.824;9.346;2022-11-20T12:12:36;13.30;62.00
1614;DHT22;800;48.824;9.346;2022-11-20T12:15:06;13.20;60.70
1614;DHT22;800;48.824;9.346;2022-11-20T12:17:35;13.50;61.80
1614;DHT22;800;48.824;9.346;2022-11-20T12:20:00;13.60;61.50
1614;DHT22;800;48.824;9.346;2022-11-20T12:22:49;13.50;61.10
1614;DHT22;800;48.824;9.346;2022-11-20T12:25:24;13.70;60.90
1614;DHT22;800;48.824;9.346;2022-11-20T12:31:01;13.70;59.60
1614;DHT22;800;48.824;9.346;2022-11-20T12:33:45;14.00;59.40
1614;DHT22;800;48.824;9.346;2022-11-20T12:36:24;14.30;59.30
1614;DHT22;800;48.824;9.346;2022-11-20T12:45:17;14.70;57.30
1614;DHT22;800;48.824;9.346;2022-11-20T12:48:10;14.40;55.20
1614;DHT22;800;48.824;9.346;2022-11-20T12:59:45;14.00;52.70
1614;DHT22;800;48.824;9.346;2022-11-20T13:02:37;13.90;52.60
1614;DHT22;800;48.824;9.346;2022-11-20T13:05:19;13.80;52.00
1614;DHT22;800;48.824;9.346;2022-11-20T13:07:46;13.70;52.50
1614;DHT22;800;48.824;9.346;2022-11-20T13:10:31;13.80;53.10
1614;DHT22;800;48.824;9.346;2022-11-20T13:13:14;13.70;52.80
1614;DHT22;800;48.824;9.346;2022-11-20T13:18:15;13.70;53.00
1614;DHT22;800;48.824;9.346;2022-11-20T13:20:44;13.60;52.90
1614;DHT22;800;48.824;9.346;2022-11-20T13:23:10;13.60;52.90
1614;DHT22;800;48.824;9.346;2022-11-20T13:25:38;13.70;52.70
1614;DHT22;800;48.824;9.346;2022-11-20T13:28:27;13.60;52.20
1614;DHT22;800;48.824;9.346;2022-11-20T13:30:55;13.40;52.40
1614;DHT22;800;48.824;9.346;2022-11-20T13:35:59;13.30;52.20
1614;DHT22;800;48.824;9.346;2022-11-20T13:38:25;13.50;52.30
1614;DHT22;800;48.824;9.346;2022-11-20T13:40:57;13.40;52.20
1614;DHT22;800;48.824;9.346;2022-11-20T13:43:38;13.40;52.40
1614;DHT22;800;48.824;9.346;2022-11-20T13:46:06;13.30;52.40
1614;DHT22;800;48.824;9.346;2022-11-20T13:48:43;13.50;52.30
1614;DHT22;800;48.824;9.346;2022-11-20T14:02:00;13.70;50.00
1614;DHT22;800;48.824;9.346;2022-11-20T14:04:30;13.90;49.20
1614;DHT22;800;48.824;9.346;2022-11-20T14:06:58;14.00;50.00
1614;DHT22;800;48.824;9.346;2022-11-20T14:09:30;13.60;48.50
1614;DHT22;800;48.824;9.346;2022-11-20T14:11:55;13.30;49.70
1614;DHT22;800;48.824;9.346;2022-11-20T14:14:27;13.00;50.30
1614;DHT22;800;48.824;9.346;2022-11-20T14:17:06;12.80;51.10
1614;DHT22;800;48.824;9.346;2022-11-20T14:19:32;12.60;51.30
1614;DHT22;800;48.824;9.346;2022-11-20T14:24:44;12.70;52.00
1614;DHT22;800;48.824;9.346;2022-11-20T14:27:14;13.00;52.30
1614;DHT22;800;48.824;9.346;2022-11-20T14:29:41;13.20;52.50
1614;DHT22;800;48.824;9.346;2022-11-20T14:32:09;13.40;52.50
1614;DHT22;800;48.824;9.346;2022-11-20T14:34:39;13.40;51.70
1614;DHT22;800;48.824;9.346;2022-11-20T14:37:11;13.50;52.00
1614;DHT22;800;48.824;9.346;2022-11-20T14:39:41;13.50;51.80
1614;DHT22;800;48.824;9.346;2022-11-20T14:44:48;13.60;52.20
1614;DHT22;800;48.824;9.346;2022-11-20T14:47:27;13.60;52.30
1614;DHT22;800;48.824;9.346;2022-11-20T14:49:54;13.50;52.30
1614;DHT22;800;48.824;9.346;2022-11-20T14:52:24;13.50;52.80
1614;DHT22;800;48.824;9.346;2022-11-20T14:57:35;13.70;52.40
1614;DHT22;800;48.824;9.346;2022-11-20T15:00:20;13.60;52.40
1614;DHT22;800;48.824;9.346;2022-11-20T15:02:53;13.60;52.30
1614;DHT22;800;48.824;9.346;2022-11-20T15:05:44;13.80;52.30
1614;DHT22;800;48.824;9.346;2022-11-20T15:08:10;13.80;51.90
1614;DHT22;800;48.824;9.346;2022-11-20T15:10:36;13.70;51.80
1614;DHT22;800;48.824;9.346;2022-11-20T15:13:05;13.40;51.80
1614;DHT22;800;48.824;9.346;2022-11-20T15:15:50;13.30;52.00
1614;DHT22;800;48.824;9.346;2022-11-20T15:18:19;13.10;52.00
1614;DHT22;800;48.824;9.346;2022-11-20T15:20:46;13.00;52.00
1614;DHT22;800;48.824;9.346;2022-11-20T15:23:17;13.00;52.20
1614;DHT22;800;48.824;9.346;2022-11-20T15:25:46;13.00;51.50
1614;DHT22;800;48.824;9.346;2022-11-20T15:28:21;13.00;51.60
1614;DHT22;800;48.824;9.346;2022-11-20T15:30:47;13.20;51.70
1614;DHT22;800;48.824;9.346;2022-11-20T15:33:14;13.40;51.60
1614;DHT22;800;48.824;9.346;2022-11-20T15:35:40;13.50;52.00
1614;DHT22;800;48.824;9.346;2022-11-20T15:38:06;13.50;51.40
1614;DHT22;800;48.824;9.346;2022-11-20T15:40:31;13.70;51.40
1614;DHT22;800;48.824;9.346;2022-11-20T15:42:57;13.70;51.30
1614;DHT22;800;48.824;9.346;2022-11-20T15:47:59;13.80;51.30
1614;DHT22;800;48.824;9.346;2022-11-20T15:50:34;13.70;51.30
1614;DHT22;800;48.824;9.346;2022-11-20T15:53:01;13.70;51.60
1614;DHT22;800;48.824;9.346;2022-11-20T15:55:30;13.60;51.70
1614;DHT22;800;48.824;9.346;2022-11-20T15:57:56;13.50;51.90
1614;DHT22;800;48.824;9.346;2022-11-20T16:00:22;13.20;52.20
1614;DHT22;800;48.824;9.346;2022-11-20T16:02:48;13.00;52.50
1614;DHT22;800;48.824;9.346;2022-11-20T16:05:14;12.90;53.00
1614;DHT22;800;48.824;9.346;2022-11-20T16:07:40;12.90;53.50
1614;DHT22;800;48.824;9.346;2022-11-20T16:10:06;12.80;53.60
1614;DHT22;800;48.824;9.346;2022-11-20T16:12:31;12.90;53.80
1614;DHT22;800;48.824;9.346;2022-11-20T16:15:16;12.90;53.60
1614;DHT22;800;48.824;9.346;2022-11-20T16:18:00;12.80;53.60
1614;DHT22;800;48.824;9.346;2022-11-20T16:20:25;12.80;53.70
1614;DHT22;800;48.824;9.346;2022-11-20T16:22:51;12.80;53.70
1614;DHT22;800;48.824;9.346;2022-11-20T16:25:16;13.00;53.60
1614;DHT22;800;48.824;9.346;2022-11-20T16:27:42;13.10;53.50
1614;DHT22;800;48.824;9.346;2022-11-20T16:30:08;13.10;53.30
1614;DHT22;800;48.824;9.346;2022-11-20T16:32:34;13.10;53.30
1614;DHT22;800;48.824;9.346;2022-11-20T16:34:59;13.10;53.40
1614;DHT22;800;48.824;9.346;2022-11-20T16:37:25;13.10;53.50
1614;DHT22;800;48.824;9.346;2022-11-20T16:39:50;13.10;53.60
1614;DHT22;800;48.824;9.346;2022-11-20T16:42:16;13.00;53.80
1614;DHT22;800;48.824;9.346;2022-11-20T16:44:41;13.00;54.00
1614;DHT22;800;48.824;9.346;2022-11-20T16:47:10;12.90;54.20
1614;DHT22;800;48.824;9.346;2022-11-20T16:49:36;13.00;54.30
1614;DHT22;800;48.824;9.346;2022-11-20T16:52:01;13.10;54.20
1614;DHT22;800;48.824;9.346;2022-11-20T16:54:27;13.00;54.10
1614;DHT22;800;48.824;9.346;2022-11-20T16:56:52;13.00;54.30
1614;DHT22;800;48.824;9.346;2022-11-20T16:59:18;12.90;54.40
1614;DHT22;800;48.824;9.346;2022-11-20T17:01:44;13.00;54.50
1614;DHT22;800;48.824;9.346;2022-11-20T17:04:09;12.90;54.50
1614;DHT22;800;48.824;9.346;2022-11-20T17:06:37;12.70;54.90
1614;DHT22;800;48.824;9.346;2022-11-20T17:09:04;12.60;55.10
1614;DHT22;800;48.824;9.346;2022-11-20T17:11:30;12.50;55.20
1614;DHT22;800;48.824;9.346;2022-11-20T17:13:58;12.20;56.00
1614;DHT22;800;48.824;9.346;2022-11-20T17:16:32;12.20;56.20
1614;DHT22;800;48.824;9.346;2022-11-20T17:18:58;12.30;56.10
1614;DHT22;800;48.824;9.346;2022-11-20T17:21:24;12.30;56.10
1614;DHT22;800;48.824;9.346;2022-11-20T17:23:51;12.40;56.10
1614;DHT22;800;48.824;9.346;2022-11-20T17:26:19;12.50;55.90
1614;DHT22;800;48.824;9.346;2022-11-20T17:28:54;12.50;55.80
1614;DHT22;800;48.824;9.346;2022-11-20T17:31:20;12.60;55.80
1614;DHT22;800;48.824;9.346;2022-11-20T17:33:46;12.70;55.70
1614;DHT22;800;48.824;9.346;2022-11-20T17:36:15;12.70;55.70
1614;DHT22;800;48.824;9.346;2022-11-20T17:38:41;12.80;55.60
1614;DHT22;800;48.824;9.346;2022-11-20T17:41:12;12.60;55.40
1614;DHT22;800;48.824;9.346;2022-11-20T17:43:39;12.60;55.70
1614;DHT22;800;48.824;9.346;2022-11-20T17:46:16;12.70;55.70
1614;DHT22;800;48.824;9.346;2022-11-20T17:48:43;12.70;55.50
1614;DHT22;800;48.824;9.346;2022-11-20T17:51:11;12.90;55.30
1614;DHT22;800;48.824;9.346;2022-11-20T17:53:39;12.80;54.90
1614;DHT22;800;48.824;9.346;2022-11-20T17:56:05;12.70;55.30
1614;DHT22;800;48.824;9.346;2022-11-20T17:58:49;12.70;55.30
1614;DHT22;800;48.824;9.346;2022-11-20T18:01:15;12.50;55.20
1614;DHT22;800;48.824;9.346;2022-11-20T18:03:41;12.50;55.30
1614;DHT22;800;48.824;9.346;2022-11-20T18:06:11;12.30;55.50